Time;durP1;ratioP1;P1;durP2;ratioP2;P2;SDS_P1;SDS_P2;PMS_P1;PMS_P2;Temp;Humidity;BMP_temperature;BMP_pressure;BME280_temperature;BME280_humidity;BME280_pressure;Samples;Min_cycle;Max_cycle;Signal;HPM_P1;HPM_P2
2022/03/09 00:00:00;;;;;;;12.23;5.33;;;;;;;5.50;61.76;99115.66;4937224;29;20177;-90
2022/03/09 00:02:26;;;;;;;14.63;6.10;;;;;;;5.50;61.34;99105.28;4920416;29;20276;-90
2022/03/09 00:04:51;;;;;;;10.90;4.93;;;;;;;5.45;61.58;99103.75;4937018;29;20189;-90
2022/03/09 00:07:17;;;;;;;15.40;6.87;;;;;;;5.54;61.36;99106.03;4920305;29;20197;-90
2022/03/09 00:09:42;;;;;;;16.83;6.70;;;;;;;5.53;61.27;99099.97;4937034;29;20184;-90
2022/03/09 00:12:08;;;;;;;10.90;5.23;;;;;;;5.58;60.76;99098.06;4937099;29;20200;-90
2022/03/09 00:14:34;;;;;;;14.10;5.83;;;;;;;5.56;60.19;99094.69;4936789;29;20511;-90
2022/03/09 00:17:00;;;;;;;10.23;5.27;;;;;;;5.38;59.92;99104.84;4936945;29;20187;-90
2022/03/09 00:19:25;;;;;;;12.53;5.23;;;;;;;5.09;60.75;99094.50;4937313;29;20261;-90
2022/03/09 00:21:51;;;;;;;12.00;4.57;;;;;;;5.11;61.07;99096.16;4919577;29;20243;-91
2022/03/09 00:24:19;;;;;;;14.87;5.50;;;;;;;5.18;60.62;99097.69;4920063;29;20180;-91
2022/03/09 00:26:46;;;;;;;12.77;4.03;;;;;;;5.21;59.50;99091.53;4919961;29;20191;-90
2022/03/09 00:29:15;;;;;;;13.97;5.77;;;;;;;5.21;58.94;99087.19;4937223;29;20179;-90
2022/03/09 00:31:50;;;;;;;;;;;;;;;;;;;;;
2022/03/09 00:34:46;;;;;;;;;;;;;;;;;;;;;
2022/03/09 00:37:20;;;;;;;20.83;6.90;;;;;;;5.09;58.75;99091.91;4936779;29;20186;-91
2022/03/09 00:39:48;;;;;;;12.47;6.00;;;;;;;5.00;58.75;99085.28;4920065;29;20184;-92
2022/03/09 00:42:17;;;;;;;16.37;5.90;;;;;;;4.90;59.87;99082.09;4921168;29;20189;-91
2022/03/09 00:45:01;;;;;;;;;;;;;;;;;;;;;
2022/03/09 00:47:27;;;;;;;13.63;5.93;;;;;;;4.85;60.12;99083.97;4937683;29;20172;-91
2022/03/09 00:49:52;;;;;;;15.13;6.90;;;;;;;4.84;59.71;99081.44;4920048;29;20264;-92
2022/03/09 00:52:18;;;;;;;20.00;5.83;;;;;;;4.84;60.04;99073.66;4919699;29;20197;-91
2022/03/09 00:54:43;;;;;;;20.00;6.63;;;;;;;4.85;59.95;99083.97;4919855;29;20218;-92
2022/03/09 00:57:09;;;;;;;16.43;5.80;;;;;;;4.83;59.84;99080.59;4919861;29;20288;-91
2022/03/09 00:59:39;;;;;;;16.00;6.17;;;;;;;4.79;60.12;99083.31;4919598;29;20209;-92
2022/03/09 01:02:07;;;;;;;9.10;4.10;;;;;;;4.79;60.11;99080.72;4919672;29;20170;-93
2022/03/09 01:04:37;;;;;;;21.43;5.77;;;;;;;4.77;60.50;99072.16;4936307;29;20204;-91
2022/03/09 01:07:04;;;;;;;18.40;6.10;;;;;;;4.71;60.63;99070.59;4920153;29;20186;-92
2022/03/09 01:09:30;;;;;;;15.47;7.00;;;;;;;4.64;61.52;99076.00;4937034;29;20178;-91
2022/03/09 01:11:57;;;;;;;10.57;5.87;;;;;;;4.53;61.60;99071.13;4920364;29;20193;-91
2022/03/09 01:14:23;;;;;;;11.17;5.77;;;;;;;4.54;61.66;99066.75;4919602;29;20181;-91
2022/03/09 01:16:49;;;;;;;16.40;5.17;;;;;;;4.49;61.42;99068.66;4936325;29;20178;-92
2022/03/09 01:19:14;;;;;;;17.27;6.43;;;;;;;4.55;61.69;99071.06;4936249;29;20529;-92
2022/03/09 01:21:40;;;;;;;10.33;5.23;;;;;;;4.50;61.41;99066.03;4919963;29;20181;-91
2022/03/09 01:24:06;;;;;;;17.03;7.67;;;;;;;4.48;61.61;99066.97;4919527;29;20657;-92
2022/03/09 01:26:33;;;;;;;13.23;5.70;;;;;;;4.51;61.86;99065.09;4919343;29;20169;-91
2022/03/09 01:28:58;;;;;;;15.73;5.80;;;;;;;4.43;62.06;99063.66;4920295;29;20185;-92
2022/03/09 01:31:24;;;;;;;12.50;5.73;;;;;;;4.48;61.76;99062.59;4936124;29;20248;-91
2022/03/09 01:33:50;;;;;;;15.87;5.30;;;;;;;4.40;62.34;99063.75;4938850;29;20174;-91
2022/03/09 01:36:16;;;;;;;10.20;5.13;;;;;;;4.28;61.85;99065.78;4940163;29;20252;-91
2022/03/09 01:38:41;;;;;;;9.77;4.60;;;;;;;4.09;63.10;99062.00;4939908;29;20182;-91
2022/03/09 01:41:07;;;;;;;9.13;5.87;;;;;;;4.00;64.32;99064.88;4940211;29;20173;-90
2022/03/09 01:43:33;;;;;;;13.87;4.80;;;;;;;4.08;64.23;99068.09;4940142;29;20525;-91
2022/03/09 01:45:58;;;;;;;12.77;5.90;;;;;;;4.21;64.30;99066.00;4923041;29;20178;-91
2022/03/09 01:48:24;;;;;;;10.40;5.77;;;;;;;4.29;64.23;99062.31;4923006;29;20256;-91
2022/03/09 01:50:50;;;;;;;12.50;6.03;;;;;;;4.29;64.23;99062.31;4940107;29;20178;-91
2022/03/09 01:53:18;;;;;;;12.33;4.90;;;;;;;4.20;65.10;99066.88;4940043;29;20295;-91
2022/03/09 01:55:44;;;;;;;11.80;5.50;;;;;;;4.25;65.87;99068.47;4922964;29;20178;-91
2022/03/09 01:58:09;;;;;;;15.20;5.40;;;;;;;4.21;66.37;99063.41;4939907;29;20192;-92
2022/03/09 02:00:35;;;;;;;9.33;3.93;;;;;;;4.15;67.20;99066.16;4939605;29;20520;-91
2022/03/09 02:03:01;;;;;;;11.30;4.33;;;;;;;4.18;67.07;99064.34;4939557;29;20252;-91
2022/03/09 02:05:26;;;;;;;13.03;5.00;;;;;;;4.12;67.82;99069.69;4939538;29;20605;-91
2022/03/09 02:10:38;;;;;;;6.73;4.50;;;;;;;4.21;67.98;99060.81;4940022;29;20518;-91
2022/03/09 02:13:03;;;;;;;13.40;4.10;;;;;;;4.25;68.28;99060.69;4922607;29;20209;-90
2022/03/09 02:15:29;;;;;;;13.90;5.50;;;;;;;4.32;68.23;99066.56;4922623;29;20181;-91
2022/03/09 02:17:54;;;;;;;7.23;3.77;;;;;;;4.26;69.32;99059.78;4922590;29;20273;-91
2022/03/09 02:20:20;;;;;;;13.90;4.87;;;;;;;4.25;69.26;99060.69;4939388;29;20174;-91
2022/03/09 02:22:46;;;;;;;12.40;4.20;;;;;;;4.34;69.57;99062.16;4922776;29;20254;-91
2022/03/09 02:25:14;;;;;;;7.83;4.73;;;;;;;4.31;69.26;99068.28;4922382;29;20182;-92
2022/03/09 02:27:40;;;;;;;6.33;3.33;;;;;;;4.38;69.66;99063.75;4922315;29;20547;-91
2022/03/09 02:30:07;;;;;;;7.60;2.97;;;;;;;4.35;69.46;99062.09;4922485;29;20632;-90
2022/03/09 02:32:38;;;;;;;9.77;4.60;;;;;;;4.40;70.31;99058.53;4938995;29;20201;-91
2022/03/09 02:35:04;;;;;;;14.33;6.07;;;;;;;4.31;70.30;99055.31;4939324;29;20186;-91
2022/03/09 02:37:30;;;;;;;12.73;4.70;;;;;;;4.27;70.40;99058.88;4922128;29;20177;-91
2022/03/09 02:39:55;;;;;;;7.67;4.33;;;;;;;4.27;70.24;99053.69;4938868;29;20185;-91
2022/03/09 02:42:21;;;;;;;12.30;2.93;;;;;;;4.10;70.90;99050.75;4939283;29;20170;-91
2022/03/09 02:44:46;;;;;;;8.03;4.23;;;;;;;4.04;71.15;99056.09;4921639;29;20301;-91
2022/03/09 02:47:12;;;;;;;7.13;4.90;;;;;;;4.01;71.76;99055.34;4922092;29;20193;-91
2022/03/09 02:49:38;;;;;;;14.37;5.80;;;;;;;4.10;71.21;99053.34;4938608;29;20182;-91
2022/03/09 02:52:03;;;;;;;8.47;3.37;;;;;;;4.11;71.47;99047.28;4938449;29;20264;-91
2022/03/09 02:54:29;;;;;;;9.17;3.07;;;;;;;4.09;71.33;99049.03;4938579;29;20237;-90
2022/03/09 02:56:55;;;;;;;7.60;3.97;;;;;;;4.09;72.03;99053.34;4938601;29;20181;-90
2022/03/09 02:59:20;;;;;;;3.80;2.00;;;;;;;3.96;72.00;99057.19;4938622;29;20177;-90
2022/03/09 03:01:46;;;;;;;11.80;4.53;;;;;;;4.02;72.74;99052.69;4938402;29;20173;-91
2022/03/09 03:04:11;;;;;;;10.00;4.03;;;;;;;4.17;72.23;99057.44;4938233;29;20204;-91
2022/03/09 03:06:37;;;;;;;10.53;4.53;;;;;;;4.12;72.26;99058.47;4921732;29;20217;-90
2022/03/09 03:09:02;;;;;;;10.40;4.80;;;;;;;3.98;72.73;99065.78;4938355;29;20194;-91
2022/03/09 03:11:28;;;;;;;13.80;4.87;;;;;;;4.11;72.88;99062.84;4938437;29;20666;-91
2022/03/09 03:13:53;;;;;;;10.67;4.40;;;;;;;4.19;72.48;99066.03;4938268;29;20297;-91
2022/03/09 03:16:19;;;;;;;10.67;5.23;;;;;;;4.19;72.22;99071.22;4922277;29;20616;-91
2022/03/09 03:18:45;;;;;;;7.33;3.47;;;;;;;4.09;72.68;99062.00;4921522;29;20177;-91
2022/03/09 03:21:13;;;;;;;8.87;3.47;;;;;;;4.00;73.02;99059.66;4921385;29;20178;-90
2022/03/09 03:23:39;;;;;;;6.10;3.13;;;;;;;3.95;73.67;99065.88;4921427;29;20182;-91
2022/03/09 03:26:05;;;;;;;8.77;4.27;;;;;;;3.96;74.03;99064.97;4922073;29;20264;-91
2022/03/09 03:28:31;;;;;;;4.47;2.87;;;;;;;3.89;74.42;99064.28;4921378;29;20190;-91
2022/03/09 03:30:57;;;;;;;8.73;4.33;;;;;;;3.96;74.60;99075.34;4921327;29;20181;-92
2022/03/09 03:33:22;;;;;;;8.10;4.13;;;;;;;4.03;74.41;99067.38;4921642;29;20648;-92
2022/03/09 03:35:49;;;;;;;5.80;3.40;;;;;;;4.15;74.26;99068.75;4938495;29;20216;-91
2022/03/09 03:38:15;;;;;;;5.93;3.30;;;;;;;4.10;73.96;99071.50;4937917;29;20289;-91
2022/03/09 03:40:41;;;;;;;4.90;3.17;;;;;;;3.77;74.94;99072.41;4921101;29;20621;-90
2022/03/09 03:43:06;;;;;;;7.47;2.80;;;;;;;3.87;75.60;99071.28;4938383;29;20178;-91
2022/03/09 03:45:33;;;;;;;5.97;4.27;;;;;;;3.72;76.37;99071.69;4921163;29;20188;-92
2022/03/09 03:47:59;;;;;;;6.60;4.63;;;;;;;3.49;77.32;99067.06;4937909;29;20216;-91
2022/03/09 03:50:25;;;;;;;10.73;5.53;;;;;;;3.55;78.10;99063.47;4937635;29;20209;-91
2022/03/09 03:52:50;;;;;;;12.50;5.57;;;;;;;3.77;77.30;99069.81;4937557;29;20204;-91
2022/03/09 03:55:16;;;;;;;7.73;3.80;;;;;;;3.80;76.86;99074.88;4936920;29;20544;-91
2022/03/09 03:57:42;;;;;;;8.80;4.33;;;;;;;3.83;76.88;99068.78;4920773;29;20601;-91
2022/03/09 04:00:09;;;;;;;11.03;4.60;;;;;;;3.70;77.86;99074.28;4937528;29;20182;-91
2022/03/09 04:02:35;;;;;;;12.53;4.77;;;;;;;3.88;77.29;99069.53;4937798;29;20253;-91
2022/03/09 04:05:01;;;;;;;18.33;5.57;;;;;;;3.67;78.02;99068.31;4920456;29;20350;-92
2022/03/09 04:07:26;;;;;;;10.03;4.80;;;;;;;3.96;77.35;99073.59;4937588;29;20186;-91
2022/03/09 04:09:53;;;;;;;13.80;5.87;;;;;;;4.02;77.44;99070.84;4920681;29;20173;-91
2022/03/09 04:12:19;;;;;;;16.27;5.67;;;;;;;3.95;77.23;99077.09;4920406;29;20568;-90
2022/03/09 04:14:45;;;;;;;12.33;3.70;;;;;;;4.02;76.66;99068.25;4937159;29;20189;-91
2022/03/09 04:17:10;;;;;;;11.47;6.30;;;;;;;4.11;76.75;99068.00;4920420;29;20181;-90
2022/03/09 04:19:36;;;;;;;9.47;4.30;;;;;;;4.09;76.54;99069.78;4937030;29;20177;-91
2022/03/09 04:22:01;;;;;;;10.70;5.43;;;;;;;4.01;76.79;99076.09;4937047;29;20616;-91
2022/03/09 04:24:27;;;;;;;9.63;5.37;;;;;;;3.96;76.90;99073.59;4937264;29;20178;-91
2022/03/09 04:26:53;;;;;;;13.10;5.47;;;;;;;3.96;77.32;99070.16;4936903;29;20688;-92
2022/03/09 04:29:19;;;;;;;11.30;5.10;;;;;;;4.00;76.94;99069.19;4920196;29;20192;-91
2022/03/09 04:31:45;;;;;;;13.60;4.27;;;;;;;4.09;76.28;99068.91;4920028;29;20566;-91
2022/03/09 04:34:10;;;;;;;9.90;5.33;;;;;;;4.05;76.42;99072.50;4920181;29;20268;-91
2022/03/09 04:36:36;;;;;;;11.70;5.73;;;;;;;4.03;76.82;99076.88;4936841;29;20502;-91
2022/03/09 04:39:02;;;;;;;8.70;5.87;;;;;;;4.10;76.67;99073.22;4920122;29;20542;-92
2022/03/09 04:41:28;;;;;;;9.43;6.30;;;;;;;4.07;76.70;99076.75;4919987;29;20642;-91
2022/03/09 04:43:53;;;;;;;17.47;4.90;;;;;;;4.13;76.53;99081.78;4920250;29;20182;-90
2022/03/09 04:46:20;;;;;;;14.87;7.83;;;;;;;4.19;76.37;99079.00;4920105;29;20186;-91
2022/03/09 04:48:49;;;;;;;14.03;6.97;;;;;;;4.19;76.37;99081.59;4920208;29;20202;-91
2022/03/09 04:51:15;;;;;;;14.97;6.03;;;;;;;4.09;76.46;99084.47;4919924;29;20197;-91
2022/03/09 04:53:41;;;;;;;16.13;6.50;;;;;;;4.09;76.42;99080.16;4936783;29;20209;-92
2022/03/09 04:56:07;;;;;;;18.37;6.93;;;;;;;4.09;77.02;99084.47;4920032;29;20185;-91
2022/03/09 04:58:32;;;;;;;8.57;5.20;;;;;;;3.93;76.79;99086.63;4919772;29;20177;-91
2022/03/09 05:00:58;;;;;;;12.03;6.27;;;;;;;4.14;76.62;99093.84;4919774;29;20631;-91
2022/03/09 05:03:33;;;;;;;12.73;5.73;;;;;;;4.17;76.12;99091.16;4920059;29;20277;-91
2022/03/09 05:05:58;;;;;;;10.23;5.73;;;;;;;4.07;76.65;99097.50;4919607;29;20272;-91
2022/03/09 05:08:24;;;;;;;13.73;5.90;;;;;;;3.96;77.48;99093.47;4919504;29;20197;-91
2022/03/09 05:10:58;;;;;;;13.97;4.53;;;;;;;3.99;77.05;99091.66;4919641;29;20181;-92
2022/03/09 05:13:24;;;;;;;16.40;6.67;;;;;;;4.07;77.41;99097.50;4919587;29;20616;-91
2022/03/09 05:15:49;;;;;;;8.63;6.23;;;;;;;3.92;77.56;99094.47;4919485;29;20188;-91
2022/03/09 05:18:17;;;;;;;9.67;5.23;;;;;;;3.93;77.76;99089.22;4919643;29;20264;-92
2022/03/09 05:20:43;;;;;;;16.83;5.83;;;;;;;4.06;77.40;99093.19;4919381;29;20185;-90
2022/03/09 05:23:08;;;;;;;12.93;5.80;;;;;;;4.07;76.74;99091.47;4936136;29;20289;-90
2022/03/09 05:25:34;;;;;;;11.50;5.07;;;;;;;3.98;77.02;99099.50;4935919;29;20190;-90
2022/03/09 05:28:01;;;;;;;10.07;4.80;;;;;;;3.96;76.60;99102.13;4919296;29;20561;-91
2022/03/09 05:30:26;;;;;;;7.77;4.90;;;;;;;3.99;77.42;99108.97;4919426;29;20182;-90
2022/03/09 05:32:52;;;;;;;11.33;5.10;;;;;;;4.10;76.61;99118.19;4935841;29;20256;-90
2022/03/09 05:35:17;;;;;;;12.53;5.53;;;;;;;4.11;77.10;99117.28;4919303;29;20182;-90
2022/03/09 05:37:44;;;;;;;10.07;4.80;;;;;;;4.20;76.33;99116.16;4935931;29;20181;-91
2022/03/09 05:40:13;;;;;;;20.67;5.93;;;;;;;4.25;75.84;99120.34;4919196;29;20190;-91
2022/03/09 05:42:39;;;;;;;11.50;5.20;;;;;;;4.17;76.03;99119.69;4920333;29;20178;-92
2022/03/09 05:45:05;;;;;;;18.00;6.53;;;;;;;4.13;75.30;99122.44;4919485;29;20196;-91
2022/03/09 05:47:31;;;;;;;17.87;6.00;;;;;;;4.27;75.15;99128.94;4919368;29;20185;-92
2022/03/09 05:49:57;;;;;;;12.23;5.63;;;;;;;4.33;75.11;99125.31;4919147;29;20192;-92
2022/03/09 05:52:23;;;;;;;13.53;6.40;;;;;;;4.57;74.80;99121.19;4919270;29;20198;-92
2022/03/09 05:54:49;;;;;;;17.87;5.67;;;;;;;4.88;72.93;99124.59;4936073;29;20265;-91
2022/03/09 05:57:21;;;;;;;9.00;4.77;;;;;;;5.16;71.96;99119.41;4919072;29;20254;-92
2022/03/09 05:59:47;;;;;;;18.83;9.37;;;;;;;5.75;70.25;99112.28;4919311;29;20183;-91
2022/03/09 06:02:13;;;;;;;18.70;6.97;;;;;;;6.23;67.79;99121.03;4918980;29;20234;-92
2022/03/09 06:04:38;;;;;;;14.70;5.83;;;;;;;6.43;64.91;99120.31;4935968;29;20297;-94
2022/03/09 06:07:04;;;;;;;14.60;6.53;;;;;;;6.69;64.45;99113.25;4919092;29;20294;-90
2022/03/09 06:09:32;;;;;;;19.60;8.13;;;;;;;6.99;62.93;99113.84;4935621;29;20176;-91
2022/03/09 06:11:58;;;;;;;22.50;9.40;;;;;;;7.23;61.12;99114.66;4919357;29;20225;-90
2022/03/09 06:14:23;;;;;;;18.00;7.20;;;;;;;7.50;59.99;99116.16;4919386;29;20186;-90
2022/03/09 06:16:49;;;;;;;19.57;7.40;;;;;;;7.89;59.20;99116.25;4935679;29;20190;-90
2022/03/09 06:23:24;;;;;;;9.40;6.07;;;;;;;8.87;55.53;99119.75;4826922;29;20196;-90
2022/03/09 06:25:59;;;;;;;15.53;7.63;;;;;;;9.33;53.54;99118.44;4863807;29;20213;-90
2022/03/09 06:28:30;;;;;;;15.70;7.27;;;;;;;9.01;52.57;99125.22;4922448;29;20173;-92
2022/03/09 06:31:21;;;;;;;17.93;8.50;;;;;;;8.87;54.23;99124.13;4938935;29;20549;-91
2022/03/09 06:34:22;;;;;;;17.03;6.93;;;;;;;8.59;54.36;99128.00;4938905;29;20273;-92
2022/03/09 06:41:14;;;;;;;15.43;7.03;;;;;;;9.15;52.24;99129.78;4926795;29;20186;-92
2022/03/09 07:05:19;;;;;;;16.63;7.37;;;;;;;9.02;52.59;99141.72;4614672;31;20328;-91
2022/03/09 07:08:38;;;;;;;;;;;;;;;;;;;;;
2022/03/09 07:11:21;;;;;;;14.50;6.30;;;;;;;7.91;55.68;99135.34;4669769;30;20653;-90
2022/03/09 07:22:07;;;;;;;13.90;5.30;;;;;;;7.79;57.00;99131.47;4833309;29;20244;-91
2022/03/09 07:30:44;;;;;;;13.67;5.87;;;;;;;8.47;53.27;99120.72;4805794;29;20860;-89
2022/03/09 07:34:00;;;;;;;10.00;5.93;;;;;;;8.05;53.76;99128.59;4867696;29;20238;-91
2022/03/09 07:41:37;;;;;;;13.77;6.77;;;;;;;7.26;57.90;99128.41;4788155;30;20207;-91
2022/03/09 07:44:28;;;;;;;19.07;6.77;;;;;;;7.37;59.88;99127.97;4778642;30;20186;-92
2022/03/09 07:47:24;;;;;;;;;;;;;;;;;;;;;
2022/03/09 07:50:42;;;;;;;14.03;5.43;;;;;;;7.72;56.17;99109.16;4806059;29;20191;-91
2022/03/09 07:53:08;;;;;;;11.17;5.30;;;;;;;7.51;54.35;99110.03;4779886;29;20230;-89
2022/03/09 07:59:11;;;;;;;13.03;6.13;;;;;;;7.19;59.64;99119.13;4851281;29;20192;-91
2022/03/09 08:01:52;;;;;;;15.60;6.73;;;;;;;6.74;58.67;99124.34;4845572;29;20204;-95
2022/03/09 08:04:57;;;;;;;;;;;;;;;;;;;;;
2022/03/09 08:11:35;;;;;;;13.67;6.07;;;;;;;7.13;58.78;99131.53;4776891;30;20210;-92
2022/03/09 08:18:19;;;;;;;11.70;5.73;;;;;;;7.05;59.15;99126.63;4752150;30;20212;-91
2022/03/09 08:21:12;;;;;;;10.67;5.40;;;;;;;7.56;57.40;99113.31;4699664;30;20218;-90
2022/03/09 08:24:04;;;;;;;9.70;5.03;;;;;;;7.33;56.73;99110.78;4752511;30;20608;-91
2022/03/09 08:26:32;;;;;;;10.03;4.73;;;;;;;6.90;59.46;99131.56;4747288;30;20212;-93
2022/03/09 09:01:04;;;;;;;12.27;6.33;;;;;;;7.11;55.35;99134.22;4654150;30;20658;-90
2022/03/09 09:11:08;;;;;;;;;;;;;;;;;;;;;
2022/03/09 09:14:13;;;;;;;;;;;;;;;;;;;;;
2022/03/09 09:17:12;;;;;;;;;;;;;;;;;;;;;
2022/03/09 09:19:40;;;;;;;10.60;5.80;;;;;;;7.42;53.30;99128.63;4790536;29;20222;-90
2022/03/09 09:36:55;;;;;;;15.40;5.80;;;;;;;7.48;51.88;99130.16;4663919;30;20250;-91
2022/03/09 09:50:19;;;;;;;12.10;5.57;;;;;;;6.84;55.83;99110.97;4715748;30;20294;-90
2022/03/09 09:52:57;;;;;;;14.80;6.17;;;;;;;7.44;57.34;99113.81;4697834;30;20736;-91
2022/03/09 09:55:43;;;;;;;7.67;4.63;;;;;;;7.28;51.16;99107.50;4716932;30;20199;-90
2022/03/09 09:58:42;;;;;;;;;;;;;;;;;;;;;
2022/03/09 10:01:43;;;;;;;;;;;;;;;;;;;;;
2022/03/09 10:17:36;;;;;;;7.63;4.00;;;;;;;7.74;50.17;99086.44;4772197;30;20203;-92
2022/03/09 10:20:23;;;;;;;13.77;4.77;;;;;;;7.38;50.11;99101.00;4789428;29;20198;-91
2022/03/09 10:22:50;;;;;;;17.30;5.40;;;;;;;7.62;50.48;99092.19;4825843;29;20192;-91
2022/03/09 10:39:42;;;;;;;9.30;4.77;;;;;;;9.54;45.81;99065.06;4750280;30;20208;-92
2022/03/09 10:46:11;;;;;;;10.40;4.83;;;;;;;8.60;46.32;99071.38;4731689;30;20204;-89
2022/03/09 10:49:45;;;;;;;;;;;;;;;;;;;;;
2022/03/09 10:54:06;;;;;;;19.23;7.80;;;;;;;8.96;46.53;99050.53;4666387;30;20353;-91
2022/03/09 10:57:03;;;;;;;14.83;5.60;;;;;;;9.50;46.17;99041.78;4653930;30;20570;-91
2022/03/09 11:06:20;;;;;;;12.63;6.37;;;;;;;9.74;43.86;99046.63;4666422;30;20277;-92
2022/03/09 11:12:52;;;;;;;;;;;;;;;;;;;;;
2022/03/09 11:15:47;;;;;;;11.93;4.20;;;;;;;8.89;49.09;99065.66;4730825;29;20209;-90
2022/03/09 11:21:24;;;;;;;5.33;2.50;;;;;;;7.76;54.00;99074.19;4899088;29;20285;-90
2022/03/09 11:23:52;;;;;;;7.10;2.47;;;;;;;7.74;55.27;99076.00;4902512;29;20182;-89
2022/03/09 11:26:27;;;;;;;8.47;3.20;;;;;;;7.71;54.74;99083.13;4902270;29;20261;-89
2022/03/09 11:29:02;;;;;;;4.70;2.90;;;;;;;6.89;58.85;99083.84;4919506;29;20165;-89
2022/03/09 11:32:10;;;;;;;11.93;3.87;;;;;;;6.67;61.89;99094.22;4918898;29;20185;-90
2022/03/09 11:34:44;;;;;;;9.87;3.53;;;;;;;6.15;65.73;99084.88;4909269;29;20206;-88
2022/03/09 11:37:34;;;;;;;6.53;3.43;;;;;;;6.07;66.34;99078.25;4919050;29;20182;-89
2022/03/09 11:40:06;;;;;;;7.00;2.90;;;;;;;5.96;66.16;99085.56;4902140;29;20188;-90
2022/03/09 11:42:34;;;;;;;5.03;2.23;;;;;;;5.63;65.76;99084.94;4901885;29;20197;-90
2022/03/09 11:45:14;;;;;;;3.87;1.93;;;;;;;5.80;65.42;99076.56;4918862;29;20524;-89
2022/03/09 11:48:09;;;;;;;2.57;1.53;;;;;;;5.87;65.61;99068.50;4902023;29;20182;-90
2022/03/09 11:51:06;;;;;;;4.90;2.37;;;;;;;5.68;66.62;99066.59;4902298;29;20170;-91
2022/03/09 11:53:41;;;;;;;8.57;3.03;;;;;;;5.91;66.29;99064.91;4894628;29;20288;-92
2022/03/09 12:38:43;;;;;;;;;;;;;;;;;;;;;
2022/03/09 12:41:53;;;;;;;6.17;2.27;;;;;;;5.86;65.67;99076.38;5009951;28;20174;-91
2022/03/09 12:44:27;;;;;;;4.23;2.30;;;;;;;5.85;65.21;99079.88;4974782;28;20205;-91
2022/03/09 12:47:56;;;;;;;6.90;1.97;;;;;;;5.69;66.43;99089.06;5064430;28;20633;-91
2022/03/09 12:50:34;;;;;;;;;;;;;;;;;;;;;
2022/03/09 12:53:00;;;;;;;7.50;3.40;;;;;;;5.99;65.67;99082.88;5070545;28;20179;-90
2022/03/09 12:55:38;;;;;;;4.87;1.70;;;;;;;5.99;66.07;99077.66;5068989;28;20278;-91
2022/03/09 12:58:06;;;;;;;7.57;2.90;;;;;;;5.82;66.98;99079.94;5068932;28;20172;-90
2022/03/09 13:00:34;;;;;;;5.70;3.30;;;;;;;5.91;66.84;99087.47;5068815;28;20201;-90
2022/03/09 13:03:02;;;;;;;8.53;3.63;;;;;;;5.98;66.83;99088.94;5069704;28;20697;-90
2022/03/09 13:05:30;;;;;;;9.17;3.50;;;;;;;6.22;66.04;99085.50;5068944;28;20191;-90
2022/03/09 13:08:05;;;;;;;5.97;3.23;;;;;;;6.37;65.86;99090.13;5069650;28;20608;-91
2022/03/09 13:10:38;;;;;;;12.57;3.53;;;;;;;6.51;65.22;99090.50;5069521;28;20263;-91
2022/03/09 13:13:07;;;;;;;12.47;5.10;;;;;;;6.63;64.95;99081.38;5069805;28;20170;-90
2022/03/09 13:15:43;;;;;;;8.80;4.17;;;;;;;6.66;65.08;99081.25;5068420;28;20563;-90
2022/03/09 13:18:21;;;;;;;7.63;2.93;;;;;;;6.54;64.64;99090.38;5069797;28;20157;-91
2022/03/09 13:20:51;;;;;;;7.83;3.80;;;;;;;6.59;65.02;99091.06;5068436;28;20170;-90
2022/03/09 13:23:26;;;;;;;3.47;2.17;;;;;;;6.54;64.80;99092.13;5083527;28;20225;-89
2022/03/09 13:26:17;;;;;;;7.40;3.20;;;;;;;6.44;65.61;99089.03;5089585;28;20226;-91
2022/03/09 13:28:48;;;;;;;5.33;3.07;;;;;;;6.34;64.90;99092.84;5089858;28;20157;-90
2022/03/09 13:31:17;;;;;;;8.53;3.33;;;;;;;6.16;66.11;99081.34;5090076;28;20243;-91
2022/03/09 13:34:36;;;;;;;;;;;;;;;;;;;;;
2022/03/09 13:37:20;;;;;;;;;;;;;;;;;;;;;
2022/03/09 13:44:18;;;;;;;;;;;;;;;;;;;;;
2022/03/09 13:50:04;;;;;;;7.60;3.13;;;;;;;6.54;64.36;99072.16;5055563;28;20193;-91
2022/03/09 13:52:30;;;;;;;7.63;3.70;;;;;;;6.62;64.85;99075.31;5076023;28;20161;-90
2022/03/09 13:54:56;;;;;;;15.27;5.00;;;;;;;6.72;65.80;99061.03;5076195;28;20177;-92
2022/03/09 13:57:28;;;;;;;11.80;4.03;;;;;;;6.87;65.74;99069.16;5058114;28;20211;-89
2022/03/09 13:59:53;;;;;;;12.23;4.07;;;;;;;7.00;65.34;99066.03;5075409;28;20172;-90
2022/03/09 14:02:23;;;;;;;11.53;5.30;;;;;;;7.07;65.84;99071.84;5075279;28;20211;-90
2022/03/09 14:04:49;;;;;;;8.23;4.87;;;;;;;7.19;65.69;99063.53;5075558;28;20184;-89
2022/03/09 14:07:15;;;;;;;10.53;3.80;;;;;;;7.17;64.91;99066.22;5075629;28;20680;-90
2022/03/09 14:09:41;;;;;;;6.80;3.43;;;;;;;7.28;64.72;99071.84;5075270;28;20176;-90
2022/03/09 14:12:17;;;;;;;8.13;4.87;;;;;;;7.20;66.17;99066.09;5075067;28;20177;-90
2022/03/09 14:14:43;;;;;;;13.53;3.90;;;;;;;7.35;65.42;99060.25;5075455;28;20180;-90
2022/03/09 14:17:09;;;;;;;7.50;4.33;;;;;;;7.33;64.24;99058.63;5075123;28;20181;-90
2022/03/09 14:19:35;;;;;;;8.70;4.43;;;;;;;7.38;63.15;99057.53;5075635;28;20177;-90
2022/03/09 14:22:00;;;;;;;10.83;4.80;;;;;;;7.48;63.34;99057.13;5075146;28;20563;-91
2022/03/09 14:24:28;;;;;;;11.03;4.80;;;;;;;7.55;63.75;99064.66;5075473;28;20173;-90
2022/03/09 14:26:57;;;;;;;10.17;3.97;;;;;;;7.66;64.18;99061.59;5057612;28;20596;-90
2022/03/09 14:29:23;;;;;;;9.83;4.67;;;;;;;7.60;64.01;99062.69;5075470;28;20185;-90
2022/03/09 14:31:51;;;;;;;6.83;3.77;;;;;;;7.65;63.62;99057.31;5057360;28;20690;-90
2022/03/09 14:34:29;;;;;;;;;;;;;;;;;;;;;
2022/03/09 14:37:02;;;;;;;6.27;3.50;;;;;;;7.42;62.05;99053.03;5075614;28;20165;-91
2022/03/09 14:39:33;;;;;;;6.93;3.30;;;;;;;7.30;61.84;99057.00;5057065;28;20238;-91
2022/03/09 14:42:00;;;;;;;11.27;3.83;;;;;;;7.39;60.41;99059.22;5075106;28;20166;-90
2022/03/09 14:44:26;;;;;;;6.37;3.47;;;;;;;7.51;59.00;99055.25;5058041;28;20265;-90
2022/03/09 14:47:10;;;;;;;10.67;4.83;;;;;;;7.36;58.35;99048.09;5056212;28;20267;-90
2022/03/09 14:49:48;;;;;;;;;;;;;;;;;;;;;
2022/03/09 14:52:19;;;;;;;6.30;2.87;;;;;;;7.24;59.06;99064.19;5075070;28;20533;-91
2022/03/09 14:54:50;;;;;;;7.03;3.17;;;;;;;7.34;59.21;99063.78;5056785;28;20242;-90
2022/03/09 14:57:23;;;;;;;10.07;3.53;;;;;;;7.46;58.32;99065.03;5074604;28;20249;-90
2022/03/09 14:59:48;;;;;;;5.17;2.73;;;;;;;7.57;57.86;99065.44;5074807;28;20486;-90
2022/03/09 15:02:26;;;;;;;;;;;;;;;;;;;;;
2022/03/09 15:04:55;;;;;;;6.73;2.97;;;;;;;7.66;56.41;99072.88;5075144;28;20181;-91
2022/03/09 15:08:02;;;;;;;;;;;;;;;;;;;;;
2022/03/09 15:10:54;;;;;;;;;;;;;;;;;;;;;
2022/03/09 15:13:52;;;;;;;6.80;3.73;;;;;;;7.64;55.43;99076.47;5074953;28;20571;-90
2022/03/09 15:16:38;;;;;;;5.43;3.20;;;;;;;7.62;56.73;99081.75;5053033;28;20193;-90
2022/03/09 15:19:26;;;;;;;;;;;;;;;;;;;;;
2022/03/09 15:21:53;;;;;;;14.10;6.27;;;;;;;7.48;55.40;99073.63;5074372;28;20173;-90
2022/03/09 15:24:47;;;;;;;;;;;;;;;;;;;;;
2022/03/09 15:27:19;;;;;;;4.33;2.70;;;;;;;7.46;56.03;99065.03;5074726;28;20167;-90
2022/03/09 15:29:44;;;;;;;6.53;2.93;;;;;;;7.49;55.84;99072.75;5074368;28;20166;-91
2022/03/09 15:32:48;;;;;;;;;;;;;;;;;;;;;
2022/03/09 15:35:08;;;;;;;5.07;2.53;;;;;;;7.52;55.77;99072.59;5068792;28;20250;-91
2022/03/09 15:38:30;;;;;;;;;;;;;;;;;;;;;
2022/03/09 15:47:33;;;;;;;;;;;;;;;;;;;;;
2022/03/09 15:54:13;;;;;;;;;;;;;;;;;;;;;
2022/03/09 15:57:40;;;;;;;5.40;2.97;;;;;;;7.35;57.13;99095.91;5009848;28;20197;-91
2022/03/09 16:00:41;;;;;;;;;;;;;;;;;;;;;
2022/03/09 16:04:06;;;;;;;;;;;;;;;;;;;;;
2022/03/09 16:07:12;;;;;;;;;;;;;;;;;;;;;
2022/03/09 16:13:43;;;;;;;;;;;;;;;;;;;;;
2022/03/09 16:34:11;;;;;;;;;;;;;;;;;;;;;
2022/03/09 16:40:21;;;;;;;;;;;;;;;;;;;;;
2022/03/09 16:42:58;;;;;;;5.37;2.87;;;;;;;6.53;61.21;99158.13;5053574;28;20197;-90
2022/03/09 16:45:56;;;;;;;13.73;5.20;;;;;;;6.18;62.66;99156.78;5035313;28;20172;-91
2022/03/09 16:49:20;;;;;;;7.60;3.40;;;;;;;6.08;64.06;99150.16;4994111;28;20193;-92
2022/03/09 16:55:17;;;;;;;15.73;4.50;;;;;;;5.77;66.59;99165.06;5041899;28;20193;-91
2022/03/09 16:57:50;;;;;;;9.10;4.40;;;;;;;5.43;67.35;99176.56;5035251;28;20687;-91
2022/03/09 17:00:37;;;;;;;10.47;4.10;;;;;;;5.22;67.78;99187.63;5035342;28;20173;-91
2022/03/09 17:03:03;;;;;;;6.80;4.27;;;;;;;5.18;67.13;99191.22;5035152;28;20232;-90
2022/03/09 17:05:32;;;;;;;9.80;3.77;;;;;;;5.11;67.57;99191.44;5035260;28;20511;-90
2022/03/09 17:07:58;;;;;;;6.83;3.70;;;;;;;5.05;67.70;99189.88;5035358;28;20553;-91
2022/03/09 17:10:33;;;;;;;7.20;3.33;;;;;;;5.19;67.29;99192.91;5037890;28;20189;-91
2022/03/09 17:13:10;;;;;;;6.50;3.37;;;;;;;5.34;66.32;99197.66;5038873;28;20161;-90
2022/03/09 17:15:38;;;;;;;10.00;3.93;;;;;;;5.38;65.70;99199.25;5056765;28;20159;-92